Fox Challenger — LEJJ — position and weather

sailwx.info

Track history (hours):
 
Tides and Currents Weather Stations Pressure Air Temp Water Temp Dewpoint Dewpoint Depression Visibility Wind Speed Wind Dir Waves Ship Positions

Fox Challenger

Last reported at 2017-Oct-22 06:30 UTC. Time now 2017-Oct-22 06:37 UTC.
Position N 70°02' E 020°59'.

Length 30 m; draft 3.1 m.

Type: Towing. MMSI: 257785500.

Date/timePositionNaut miles runAvg speedWind from/ knotsBaromVisibWave heightAir tempDewpointWater temp
2017-Oct-22 06:30N 70°02' E 020°59'0 0.0
2017-Oct-22 05:59N 70°02' E 020°59'0 0.0
2017-Oct-22 05:30N 70°02' E 020°59'0 0.0
2017-Oct-22 05:00N 70°02' E 020°59'0 0.0
2017-Oct-22 04:30N 70°02' E 020°59'0 0.0
2017-Oct-22 04:00N 70°02' E 020°59'0 0.0
2017-Oct-22 03:30N 70°02' E 020°59'0 0.0
2017-Oct-22 02:59N 70°02' E 020°59'0 0.0
2017-Oct-22 02:29N 70°02' E 020°59'0 0.0
2017-Oct-22 02:00N 70°02' E 020°59'0 0.0
2017-Oct-22 01:30N 70°02' E 020°59'0 0.0
2017-Oct-22 01:00N 70°02' E 020°59'0 0.0
2017-Oct-22 00:30N 70°02' E 020°59'0 0.0
2017-Oct-22 00:00N 70°02' E 020°59'0 0.0
2017-Oct-21 23:30N 70°02' E 020°59'0 0.0
2017-Oct-21 23:00N 70°02' E 020°59'0 0.0
2017-Oct-21 22:31N 70°02' E 020°59'0 0.0
2017-Oct-21 22:00N 70°02' E 020°59'0 0.0
2017-Oct-21 21:30N 70°02' E 020°59'0 0.0
2017-Oct-21 21:00N 70°02' E 020°59'0 0.0
2017-Oct-21 20:29N 70°02' E 020°59'0 0.0
2017-Oct-21 20:00N 70°02' E 020°59'0 0.0
2017-Oct-21 19:30N 70°02' E 020°59'0 0.0
2017-Oct-21 19:00N 70°02' E 020°59'0 0.0
2017-Oct-21 18:30N 70°02' E 020°59'2 4.6
2017-Oct-21 18:00N 70°01' E 021°04'4 8.8
2017-Oct-21 17:30N 69°57' E 020°58'4 8.2
2017-Oct-21 17:00N 69°56' E 020°46'1 1.4
2017-Oct-21 16:30N 69°57' E 020°46'0 0.0
2017-Oct-21 16:00N 69°57' E 020°46'0 0.1
2017-Oct-21 15:30N 69°57' E 020°45'0 0.0
2017-Oct-21 15:00N 69°57' E 020°45'0 0.0
2017-Oct-21 14:30N 69°57' E 020°45'0 0.0
2017-Oct-21 13:30N 69°57' E 020°45'0 0.0
2017-Oct-21 13:00N 69°57' E 020°45'0 0.0
2017-Oct-21 12:30N 69°57' E 020°45'0 0.0
2017-Oct-21 12:00N 69°57' E 020°45'0 0.3
2017-Oct-21 11:30N 69°57' E 020°46'0 0.0
2017-Oct-21 11:00N 69°57' E 020°46'0 0.3
2017-Oct-21 10:30N 69°57' E 020°46'0 0.3
2017-Oct-21 10:00N 69°57' E 020°46'0 0.3
2017-Oct-21 09:30N 69°57' E 020°46'0 0.2
2017-Oct-21 09:00N 69°57' E 020°45'0 0.0
2017-Oct-21 08:30N 69°57' E 020°45'0 0.1
2017-Oct-21 08:00N 69°57' E 020°45'0 0.0
2017-Oct-21 07:30N 69°57' E 020°45'0 0.1
2017-Oct-21 07:00N 69°57' E 020°45'0 0.0
2017-Oct-21 06:30N 69°57' E 020°45'0 0.1
2017-Oct-21 06:00N 69°57' E 020°45'0 0.0
2017-Oct-21 05:30N 69°57' E 020°45'0 0.4
2017-Oct-21 05:00N 69°57' E 020°45'0 0.0
2017-Oct-21 04:30N 69°57' E 020°45'0 0.0
2017-Oct-21 04:00N 69°57' E 020°45'0 0.0
2017-Oct-21 03:31N 69°57' E 020°45'0 0.0
2017-Oct-21 03:00N 69°57' E 020°45'0 0.0
2017-Oct-21 02:30N 69°57' E 020°45'0 0.0
2017-Oct-21 02:00N 69°57' E 020°45'0 0.0
2017-Oct-21 01:30N 69°57' E 020°45'0 0.0
2017-Oct-21 01:00N 69°57' E 020°45'0 0.0
2017-Oct-21 00:30N 69°57' E 020°45'0 0.0
2017-Oct-21 00:00N 69°57' E 020°45'0 0.0
2017-Oct-20 23:30N 69°57' E 020°45'0 0.0
2017-Oct-20 23:00N 69°57' E 020°45'0 0.0
2017-Oct-20 22:30N 69°57' E 020°45'0 0.0
2017-Oct-20 21:59N 69°57' E 020°45'0 0.0
2017-Oct-20 21:29N 69°57' E 020°45'0 0.0
2017-Oct-20 21:00N 69°57' E 020°45'0 0.0
2017-Oct-20 20:30N 69°57' E 020°45'0 0.0
2017-Oct-20 20:00N 69°57' E 020°45'0 0.0
2017-Oct-20 19:30N 69°57' E 020°45'0 0.0
2017-Oct-20 19:00N 69°57' E 020°45'0 0.4
2017-Oct-20 18:30N 69°57' E 020°45'0 0.1
2017-Oct-20 18:00N 69°57' E 020°45'0 0.0
2017-Oct-20 17:30N 69°57' E 020°45'0 0.0
2017-Oct-20 17:00N 69°57' E 020°45'0 0.0
2017-Oct-20 16:30N 69°57' E 020°45'0 0.0
2017-Oct-20 16:00N 69°57' E 020°45'0 0.0
2017-Oct-20 15:30N 69°57' E 020°45'0 0.0
2017-Oct-20 15:00N 69°57' E 020°45'0 0.0
2017-Oct-20 14:00N 69°57' E 020°45'0 0.0
2017-Oct-20 13:29N 69°57' E 020°45'0 0.0
2017-Oct-20 12:59N 69°57' E 020°45'0 0.0
2017-Oct-20 12:30N 69°57' E 020°45'0 0.0
2017-Oct-20 12:00N 69°57' E 020°45'0 0.0
2017-Oct-20 11:30N 69°57' E 020°45'0 0.0
2017-Oct-20 11:00N 69°57' E 020°45'0 0.0
2017-Oct-20 10:30N 69°57' E 020°45'0 0.1
2017-Oct-20 10:00N 69°57' E 020°45'0 0.0
2017-Oct-20 09:30N 69°57' E 020°45'0 0.4
2017-Oct-20 09:00N 69°57' E 020°44'0 0.3
2017-Oct-20 08:30N 69°57' E 020°45'0 0.0
2017-Oct-20 08:00N 69°57' E 020°45'0 0.4
2017-Oct-20 07:29N 69°57' E 020°44'0 0.3
2017-Oct-20 06:59N 69°57' E 020°45'0 0.6
2017-Oct-20 06:30N 69°57' E 020°45'0 0.0
2017-Oct-20 06:00N 69°57' E 020°45'0 0.0
2017-Oct-20 05:30N 69°57' E 020°45'0 0.2
2017-Oct-20 05:00N 69°57' E 020°45'0 0.0
2017-Oct-20 04:29N 69°57' E 020°45'0 0.0
2017-Oct-20 04:00N 69°57' E 020°45'0 0.0
2017-Oct-20 03:30N 69°57' E 020°45'0 0.0
2017-Oct-20 03:00N 69°57' E 020°45'0 0.0
2017-Oct-20 02:30N 69°57' E 020°45'0 0.0
2017-Oct-20 02:00N 69°57' E 020°45'0 0.0
2017-Oct-20 01:30N 69°57' E 020°45'0 0.0
2017-Oct-20 01:00N 69°57' E 020°45'0 0.0
2017-Oct-20 00:30N 69°57' E 020°45'0 0.0
2017-Oct-19 23:59N 69°57' E 020°45'0 0.0
2017-Oct-19 23:30N 69°57' E 020°45'0 0.0
2017-Oct-19 23:00N 69°57' E 020°45'0 0.0
2017-Oct-19 22:30N 69°57' E 020°45'0 0.0
2017-Oct-19 22:00N 69°57' E 020°45'0 0.0
2017-Oct-19 21:30N 69°57' E 020°45'0 0.0
2017-Oct-19 21:00N 69°57' E 020°45'0 0.0
2017-Oct-19 20:30N 69°57' E 020°45'0 0.3
2017-Oct-19 20:00N 69°57' E 020°45'0 0.0
2017-Oct-19 19:30N 69°57' E 020°45'0 0.1
2017-Oct-19 19:00N 69°57' E 020°45'0 0.1
2017-Oct-19 18:29N 69°57' E 020°45'0 0.2
2017-Oct-19 18:00N 69°57' E 020°46'0 0.1
2017-Oct-19 17:30N 69°57' E 020°45'0 0.2
2017-Oct-19 17:00N 69°57' E 020°45'0 0.2
2017-Oct-19 16:29N 69°57' E 020°46'0 0.0
2017-Oct-19 15:59N 69°57' E 020°46'0 0.0
2017-Oct-19 15:29N 69°57' E 020°46'0 0.1
2017-Oct-19 15:00N 69°57' E 020°45'0 0.0
2017-Oct-19 14:30N 69°57' E 020°45'0 0.0
2017-Oct-19 14:00N 69°57' E 020°45'0 0.0
2017-Oct-19 13:30N 69°57' E 020°45'0 0.0
2017-Oct-19 13:00N 69°57' E 020°45'0 0.1
2017-Oct-19 12:30N 69°57' E 020°46'3 5.5
2017-Oct-19 12:00N 69°56' E 020°53'5 9.1
2017-Oct-19 11:30N 69°59' E 021°03'2 4.9
2017-Oct-19 11:00N 70°01' E 021°03'2 3.5
2017-Oct-19 10:30N 70°02' E 020°59'0 0.0
2017-Oct-19 10:00N 70°02' E 020°59'0 0.0
2017-Oct-19 09:29N 70°02' E 020°59'0 0.0
2017-Oct-19 09:00N 70°02' E 020°59'0 0.0
2017-Oct-19 08:29N 70°02' E 020°59'0 0.0
2017-Oct-19 08:00N 70°02' E 020°59'0 0.0
2017-Oct-19 07:30N 70°02' E 020°59'0 0.0
2017-Oct-19 07:00N 70°02' E 020°59'0 0.0
2017-Oct-19 06:30N 70°02' E 020°59'0 0.0
2017-Oct-19 06:00N 70°02' E 020°59'0 0.0
2017-Oct-19 05:30N 70°02' E 020°59'0 0.0
2017-Oct-19 04:59N 70°02' E 020°59'0 0.0
2017-Oct-19 04:30N 70°02' E 020°59'0 0.0
2017-Oct-19 04:00N 70°02' E 020°59'0 0.0
2017-Oct-19 03:29N 70°02' E 020°59'0 0.0
2017-Oct-19 02:59N 70°02' E 020°59'0 0.0
2017-Oct-19 02:30N 70°02' E 020°59'0 0.0
2017-Oct-19 02:00N 70°02' E 020°59'0 0.0
2017-Oct-19 01:30N 70°02' E 020°59'0 0.0
2017-Oct-19 01:00N 70°02' E 020°59'0 0.0
2017-Oct-19 00:30N 70°02' E 020°59'0 0.0
2017-Oct-19 00:00N 70°02' E 020°59'0 0.0
2017-Oct-18 23:30N 70°02' E 020°59'0 0.0
2017-Oct-18 23:00N 70°02' E 020°59'0 0.0
2017-Oct-18 22:30N 70°02' E 020°59'0 0.0
2017-Oct-18 21:59N 70°02' E 020°59'0 0.0
2017-Oct-18 21:30N 70°02' E 020°59'0 0.0
2017-Oct-18 20:59N 70°02' E 020°59'0 0.0
2017-Oct-18 20:30N 70°02' E 020°59'0 0.0
2017-Oct-18 20:00N 70°02' E 020°59'0 0.0
2017-Oct-18 19:29N 70°02' E 020°59'0 0.0
2017-Oct-18 18:59N 70°02' E 020°59'0 0.0
2017-Oct-18 18:30N 70°02' E 020°59'0 0.0
2017-Oct-18 18:00N 70°02' E 020°59'0 0.0
2017-Oct-18 17:30N 70°02' E 020°59'0 0.0
2017-Oct-18 17:00N 70°02' E 020°59'0 0.0
2017-Oct-18 16:30N 70°02' E 020°59'0 0.0
2017-Oct-18 16:00N 70°02' E 020°59'0 0.0
2017-Oct-18 15:29N 70°02' E 020°59'0 0.0
2017-Oct-18 15:00N 70°02' E 020°59'0 0.0
2017-Oct-18 14:00N 70°02' E 020°59'0 0.0
2017-Oct-18 13:29N 70°02' E 020°59'0 0.0
2017-Oct-18 13:00N 70°02' E 020°59'0 0.0
2017-Oct-18 12:30N 70°02' E 020°59'0 0.0
2017-Oct-18 12:00N 70°02' E 020°59'0 0.0
2017-Oct-18 11:30N 70°02' E 020°59'0 0.0
2017-Oct-18 10:59N 70°02' E 020°59'0 0.0
2017-Oct-18 10:30N 70°02' E 020°59'0 0.0
2017-Oct-18 10:00N 70°02' E 020°59'0 0.0
2017-Oct-18 09:31N 70°02' E 020°59'0 0.0
2017-Oct-18 09:00N 70°02' E 020°59'0 0.0
2017-Oct-18 08:30N 70°02' E 020°59'0 0.0
2017-Oct-18 08:00N 70°02' E 020°59'0 0.0
2017-Oct-18 07:30N 70°02' E 020°59'0 0.0
2017-Oct-18 07:00N 70°02' E 020°59'0 0.0
2017-Oct-18 06:30N 70°02' E 020°59'0 0.0
2017-Oct-18 06:00N 70°02' E 020°59'0 0.0
2017-Oct-18 05:30N 70°02' E 020°59'0 0.0
2017-Oct-18 05:00N 70°02' E 020°59'0 0.0
2017-Oct-18 04:30N 70°02' E 020°59'0 0.0
2017-Oct-18 03:59N 70°02' E 020°59'0 0.0
2017-Oct-18 03:29N 70°02' E 020°59'0 0.0
2017-Oct-18 03:00N 70°02' E 020°59'0 0.0
2017-Oct-18 02:30N 70°02' E 020°59'0 0.0
2017-Oct-18 02:00N 70°02' E 020°59'0 0.0
2017-Oct-18 01:30N 70°02' E 020°59'0 0.0
2017-Oct-18 01:00N 70°02' E 020°59'0 0.0
2017-Oct-18 00:30N 70°02' E 020°59'0 0.0
2017-Oct-18 00:01N 70°02' E 020°59'0 0.0
2017-Oct-17 23:29N 70°02' E 020°59'0 0.0
2017-Oct-17 22:59N 70°02' E 020°59'0 0.0
2017-Oct-17 22:30N 70°02' E 020°59'0 0.0
2017-Oct-17 21:59N 70°02' E 020°59'0 0.0
2017-Oct-17 21:30N 70°02' E 020°59'0 0.0
2017-Oct-17 21:00N 70°02' E 020°59'0 0.0
2017-Oct-17 20:30N 70°02' E 020°59'0 0.0
2017-Oct-17 20:00N 70°02' E 020°59'0 0.0
2017-Oct-17 19:30N 70°02' E 020°59'0 0.0
2017-Oct-17 19:00N 70°02' E 020°59'0 0.0
2017-Oct-17 18:30N 70°02' E 020°59'0 0.0
2017-Oct-17 18:00N 70°02' E 020°59'0 0.0
2017-Oct-17 17:30N 70°02' E 020°59'0 0.0
2017-Oct-17 17:00N 70°02' E 020°59'0 0.0
2017-Oct-17 16:30N 70°02' E 020°59'0 0.0
2017-Oct-17 16:00N 70°02' E 020°59'0 0.4
2017-Oct-17 15:30N 70°02' E 020°59'0 0.0
2017-Oct-17 15:00N 70°02' E 020°59'1 2.8
2017-Oct-17 14:30N 70°01' E 021°03'510.4
2017-Oct-17 14:00N 69°57' E 020°57'4 7.8
2017-Oct-17 13:31N 69°57' E 020°46'0 0.0
2017-Oct-17 13:00N 69°57' E 020°46'0 0.0
2017-Oct-17 12:30N 69°57' E 020°46'0 0.0
2017-Oct-17 12:00N 69°57' E 020°46'0 0.0
2017-Oct-17 11:30N 69°57' E 020°46'0 0.2
2017-Oct-17 11:00N 69°57' E 020°45'0 0.0
2017-Oct-17 10:30N 69°57' E 020°45'0 0.2
2017-Oct-17 10:00N 69°57' E 020°45'0 0.2
2017-Oct-17 09:30N 69°57' E 020°45'0 0.1
2017-Oct-17 09:00N 69°57' E 020°45'0 0.0
2017-Oct-17 08:29N 69°57' E 020°45'0 0.6
2017-Oct-17 08:00N 69°57' E 020°45'0 0.4
2017-Oct-17 07:30N 69°57' E 020°44'0 0.1
2017-Oct-17 07:00N 69°57' E 020°44'3 6.4
2017-Oct-17 06:30N 69°56' E 020°53'510.0
2017-Oct-17 06:00N 69°59' E 021°03'3 6.7
2017-Oct-17 05:30N 70°02' E 020°59'0 0.0
2017-Oct-17 05:00N 70°02' E 020°59'0 0.0
2017-Oct-17 04:30N 70°02' E 020°59'0 0.0
2017-Oct-17 03:59N 70°02' E 020°59'0 0.0
2017-Oct-17 03:30N 70°02' E 020°59'0 0.0
2017-Oct-17 03:00N 70°02' E 020°59'0 0.0
2017-Oct-17 02:30N 70°02' E 020°59'0 0.0
2017-Oct-17 02:00N 70°02' E 020°59'0 0.0
2017-Oct-17 01:30N 70°02' E 020°59'0 0.0
2017-Oct-17 00:59N 70°02' E 020°59'0 0.0
2017-Oct-17 00:30N 70°02' E 020°59'0 0.0
2017-Oct-17 00:00N 70°02' E 020°59'0 0.0
2017-Oct-16 23:30N 70°02' E 020°59'0 0.0
2017-Oct-16 23:00N 70°02' E 020°59'0 0.0
2017-Oct-16 22:29N 70°02' E 020°59'0 0.0
2017-Oct-16 22:00N 70°02' E 020°59'0 0.0
2017-Oct-16 21:30N 70°02' E 020°59'0 0.0
2017-Oct-16 21:00N 70°02' E 020°59'0 0.0
2017-Oct-16 20:30N 70°02' E 020°59'3 6.1
2017-Oct-16 20:00N 69°60' E 021°05'5 9.8
2017-Oct-16 19:29N 69°56' E 020°55'4 7.8
2017-Oct-16 19:00N 69°57' E 020°44'0 0.2
2017-Oct-16 18:30N 69°57' E 020°45'0 0.0
2017-Oct-16 18:00N 69°57' E 020°45'0 0.2
2017-Oct-16 17:30N 69°57' E 020°44'0 0.3
2017-Oct-16 17:00N 69°57' E 020°45'0 0.3
2017-Oct-16 16:30N 69°57' E 020°44'0 0.1
2017-Oct-16 16:00N 69°57' E 020°44'0 0.0
2017-Oct-16 15:30N 69°57' E 020°44'0 0.2
2017-Oct-16 15:00N 69°57' E 020°45'0 0.1
2017-Oct-16 14:30N 69°57' E 020°45'0 0.0
2017-Oct-16 13:30N 69°57' E 020°45'0 0.0
2017-Oct-16 13:00N 69°57' E 020°45'0 0.0
2017-Oct-16 12:30N 69°57' E 020°45'1 2.8
2017-Oct-16 12:00N 69°56' E 020°47'4 8.5
2017-Oct-16 11:29N 69°57' E 020°59'4 8.8
2017-Oct-16 11:00N 70°01' E 021°03'2 3.3
2017-Oct-16 10:30N 70°02' E 020°59'0 0.1
2017-Oct-16 10:00N 70°02' E 020°59'0 0.0
2017-Oct-16 09:30N 70°02' E 020°59'0 0.0
2017-Oct-16 09:00N 70°02' E 020°59'0 0.0
2017-Oct-16 08:30N 70°02' E 020°59'0 0.0
2017-Oct-16 08:01N 70°02' E 020°59'0 0.1
2017-Oct-16 07:30N 70°02' E 020°59'0 0.0
2017-Oct-16 07:00N 70°02' E 020°59'0 0.0
2017-Oct-16 06:30N 70°02' E 020°59'0 0.0
2017-Oct-16 06:00N 70°02' E 020°59'0 0.0
2017-Oct-16 05:30N 70°02' E 020°59'0 0.3
2017-Oct-16 05:01N 70°02' E 020°58'0 0.0
2017-Oct-16 04:30N 70°02' E 020°58'0 0.0
2017-Oct-16 04:00N 70°02' E 020°58'0 0.0
2017-Oct-16 03:30N 70°02' E 020°58'0 0.0
2017-Oct-16 03:00N 70°02' E 020°58'0 0.0
2017-Oct-16 02:30N 70°02' E 020°58'0 0.0
2017-Oct-16 02:00N 70°02' E 020°58'0 0.0
2017-Oct-16 01:30N 70°02' E 020°58'0 0.0
2017-Oct-16 01:00N 70°02' E 020°58'0 0.0
2017-Oct-16 00:30N 70°02' E 020°58'0 0.0
2017-Oct-16 00:00N 70°02' E 020°58'0 0.0
2017-Oct-15 23:30N 70°02' E 020°58'0 0.0
2017-Oct-15 23:00N 70°02' E 020°58'0 0.0
2017-Oct-15 22:30N 70°02' E 020°58'0 0.0
2017-Oct-15 22:01N 70°02' E 020°58'0 0.0
2017-Oct-15 21:30N 70°02' E 020°58'0 0.0
2017-Oct-15 21:00N 70°02' E 020°58'0 0.0
2017-Oct-15 20:30N 70°02' E 020°58'0 0.0
2017-Oct-15 20:00N 70°02' E 020°58'0 0.0
2017-Oct-15 19:30N 70°02' E 020°58'0 0.0
2017-Oct-15 19:00N 70°02' E 020°58'0 0.0
2017-Oct-15 18:30N 70°02' E 020°58'0 0.0
2017-Oct-15 18:00N 70°02' E 020°58'0 0.0
2017-Oct-15 17:29N 70°02' E 020°58'0 0.3
2017-Oct-15 17:00N 70°02' E 020°59'0 0.0
2017-Oct-15 16:30N 70°02' E 020°59'1 2.7
2017-Oct-15 15:59N 70°03' E 021°01'4 8.5
2017-Oct-15 15:30N 70°03' E 020°49'510.1
2017-Oct-15 15:00N 70°01' E 020°35'1010.2
2017-Oct-15 14:00N 70°01' E 020°05'510.4
2017-Oct-15 13:30N 70°01' E 019°50'5 9.4
2017-Oct-15 13:00N 69°58' E 019°39'1 1.6
2017-Oct-15 12:29N 69°58' E 019°37'0 0.0
2017-Oct-15 12:00N 69°58' E 019°37'0 0.0
2017-Oct-15 11:29N 69°58' E 019°37'0 0.0
2017-Oct-15 11:00N 69°58' E 019°37'0 0.0
2017-Oct-15 10:29N 69°58' E 019°37'0 0.0
2017-Oct-15 10:00N 69°58' E 019°37'0 0.0
2017-Oct-15 09:30N 69°58' E 019°37'0 0.0
2017-Oct-15 09:00N 69°58' E 019°37'0 0.0
2017-Oct-15 08:30N 69°58' E 019°37'0 0.0
2017-Oct-15 08:01N 69°58' E 019°37'0 0.0
2017-Oct-15 07:29N 69°58' E 019°37'0 0.0
2017-Oct-15 06:59N 69°58' E 019°37'0 0.0
2017-Oct-15 06:30N 69°58' E 019°37'0 0.0
2017-Oct-15 06:00N 69°58' E 019°37'0 0.0
2017-Oct-15 05:30N 69°58' E 019°37'0 0.0
2017-Oct-15 05:00N 69°58' E 019°37'0 0.0
2017-Oct-15 04:30N 69°58' E 019°37'0 0.0
2017-Oct-15 04:00N 69°58' E 019°37'0 0.0
2017-Oct-15 03:30N 69°58' E 019°37'0 0.0
2017-Oct-15 03:00N 69°58' E 019°37'0 0.0
2017-Oct-15 02:30N 69°58' E 019°37'0 0.0
2017-Oct-15 02:00N 69°58' E 019°37'0 0.0
2017-Oct-15 01:30N 69°58' E 019°37'0 0.0
2017-Oct-15 01:00N 69°58' E 019°37'0 0.0
2017-Oct-15 00:30N 69°58' E 019°37'0 0.0
2017-Oct-15 00:00N 69°58' E 019°37'0 0.0
2017-Oct-14 23:29N 69°58' E 019°37'0 0.0
2017-Oct-14 23:00N 69°58' E 019°37'0 0.0
2017-Oct-14 22:30N 69°58' E 019°37'0 0.0
2017-Oct-14 22:00N 69°58' E 019°37'0 0.0
2017-Oct-14 21:30N 69°58' E 019°37'0 0.0
2017-Oct-14 21:00N 69°58' E 019°37'0 0.0
2017-Oct-14 20:29N 69°58' E 019°37'0 0.0
2017-Oct-14 20:00N 69°58' E 019°37'0 0.0
2017-Oct-14 19:30N 69°58' E 019°37'0 0.0
2017-Oct-14 19:00N 69°58' E 019°37'0 0.0
2017-Oct-14 18:30N 69°58' E 019°37'0 0.0
2017-Oct-14 18:01N 69°58' E 019°37'0 0.0
2017-Oct-14 17:30N 69°58' E 019°37'0 0.0
2017-Oct-14 16:59N 69°58' E 019°37'0 0.0
2017-Oct-14 16:30N 69°58' E 019°37'0 0.0
2017-Oct-14 16:00N 69°58' E 019°37'0 0.0
2017-Oct-14 15:29N 69°58' E 019°37'3 5.8
2017-Oct-14 15:00N 70°00' E 019°40'510.1
2017-Oct-14 14:30N 70°04' E 019°28'3 6.8
2017-Oct-14 14:00N 70°04' E 019°19'0 0.1
2017-Oct-14 13:29N 70°04' E 019°19'0 0.1
2017-Oct-14 13:00N 70°04' E 019°19'0 0.3
2017-Oct-14 12:30N 70°04' E 019°19'0 0.3
2017-Oct-14 12:00N 70°04' E 019°19'0 0.0
2017-Oct-14 11:30N 70°04' E 019°19'0 0.0
2017-Oct-14 11:00N 70°04' E 019°19'0 0.0
2017-Oct-14 10:30N 70°04' E 019°19'0 0.0
2017-Oct-14 10:00N 70°04' E 019°19'0 0.4
2017-Oct-14 09:30N 70°04' E 019°18'0 0.0
2017-Oct-14 09:00N 70°04' E 019°18'0 0.1
2017-Oct-14 08:30N 70°04' E 019°18'0 0.0
2017-Oct-14 08:00N 70°04' E 019°18'0 0.3
2017-Oct-14 07:30N 70°04' E 019°19'0 0.3
2017-Oct-14 07:00N 70°04' E 019°18'2 4.3
2017-Oct-14 06:30N 70°03' E 019°24'5 8.8
2017-Oct-14 05:59N 70°02' E 019°37'4 8.1
2017-Oct-14 05:29N 69°58' E 019°40'1 1.8
2017-Oct-14 05:00N 69°58' E 019°37'0 0.0
2017-Oct-14 04:30N 69°58' E 019°37'0 0.0
2017-Oct-14 04:01N 69°58' E 019°37'0 0.0
2017-Oct-14 03:30N 69°58' E 019°37'0 0.0
2017-Oct-14 02:58N 69°58' E 019°37'0 0.0
2017-Oct-14 02:30N 69°58' E 019°37'0 0.0
2017-Oct-14 02:00N 69°58' E 019°37'0 0.0
2017-Oct-14 01:30N 69°58' E 019°37'0 0.0
2017-Oct-14 01:00N 69°58' E 019°37'0 0.0
2017-Oct-14 00:30N 69°58' E 019°37'0 0.0
2017-Oct-14 00:00N 69°58' E 019°37'0 0.0
2017-Oct-13 23:28N 69°58' E 019°37'0 0.0
2017-Oct-13 23:00N 69°58' E 019°37'0 0.0
2017-Oct-13 22:30N 69°58' E 019°37'0 0.0
2017-Oct-13 21:59N 69°58' E 019°37'0 0.0
2017-Oct-13 21:30N 69°58' E 019°37'0 0.0
2017-Oct-13 21:00N 69°58' E 019°37'0 0.0
2017-Oct-13 20:30N 69°58' E 019°37'0 0.0
2017-Oct-13 20:00N 69°58' E 019°37'0 0.0
2017-Oct-13 19:30N 69°58' E 019°37'2 4.7
2017-Oct-13 18:59N 69°60' E 019°41'5 9.9
2017-Oct-13 18:30N 70°03' E 019°32'5 9.0
2017-Oct-13 18:00N 70°03' E 019°19'0 1.0
2017-Oct-13 17:30N 70°04' E 019°18'0 0.0
2017-Oct-13 17:00N 70°04' E 019°18'0 0.0
2017-Oct-13 16:30N 70°04' E 019°18'0 0.0
2017-Oct-13 16:00N 70°04' E 019°18'0 0.1
2017-Oct-13 15:31N 70°04' E 019°18'0 0.0
2017-Oct-13 15:00N 70°04' E 019°18'0 0.0
2017-Oct-13 14:30N 70°04' E 019°18'0 0.4
2017-Oct-13 14:00N 70°04' E 019°19'0 0.0
2017-Oct-13 13:30N 70°04' E 019°19'0 0.4
2017-Oct-13 13:00N 70°04' E 019°18'0 0.2
2017-Oct-13 12:30N 70°04' E 019°19'0 0.0
2017-Oct-13 12:00N 70°04' E 019°19'0 0.0
2017-Oct-13 11:30N 70°04' E 019°19'0 0.0
2017-Oct-13 10:59N 70°04' E 019°19'0 0.4
2017-Oct-13 10:30N 70°04' E 019°19'0 0.4
2017-Oct-13 10:01N 70°04' E 019°19'0 0.1
2017-Oct-13 09:30N 70°04' E 019°19'0 0.0
2017-Oct-13 09:00N 70°04' E 019°19'0 0.3
2017-Oct-13 08:30N 70°04' E 019°19'0 0.0
2017-Oct-13 08:00N 70°04' E 019°19'0 0.2
2017-Oct-13 07:31N 70°04' E 019°19'0 0.1
2017-Oct-13 07:00N 70°04' E 019°19'3 5.2
2017-Oct-13 06:29N 70°03' E 019°26'4 8.7
2017-Oct-13 05:59N 70°01' E 019°37'3 6.5
2017-Oct-13 05:29N 69°58' E 019°40'1 2.4
2017-Oct-13 05:00N 69°58' E 019°37'0 0.0
2017-Oct-13 04:29N 69°58' E 019°37'0 0.0
2017-Oct-13 04:00N 69°58' E 019°37'0 0.0
2017-Oct-13 03:30N 69°58' E 019°37'0 0.0
2017-Oct-13 03:00N 69°58' E 019°37'0 0.0
2017-Oct-13 02:30N 69°58' E 019°37'0 0.0
2017-Oct-13 02:00N 69°58' E 019°37'0 0.0
2017-Oct-13 01:30N 69°58' E 019°37'0 0.0
2017-Oct-13 01:00N 69°58' E 019°37'0 0.0
2017-Oct-13 00:29N 69°58' E 019°37'0 0.0
2017-Oct-12 23:58N 69°58' E 019°37'0 0.0
2017-Oct-12 23:30N 69°58' E 019°37'0 0.0
2017-Oct-12 23:00N 69°58' E 019°37'0 0.0
2017-Oct-12 22:30N 69°58' E 019°37'0 0.0
2017-Oct-12 21:58N 69°58' E 019°37'0 0.0
2017-Oct-12 21:29N 69°58' E 019°37'0 0.0
2017-Oct-12 20:59N 69°58' E 019°37'0 0.0
2017-Oct-12 20:29N 69°58' E 019°37'0 0.0
2017-Oct-12 20:00N 69°58' E 019°37'0 0.0
2017-Oct-12 19:30N 69°58' E 019°37'0 0.0
2017-Oct-12 18:59N 69°58' E 019°37'3 5.9
2017-Oct-12 18:30N 70°00' E 019°40'5 9.6
2017-Oct-12 17:57N 70°03' E 019°27'3 6.7
2017-Oct-12 17:30N 70°04' E 019°19'0 0.3
2017-Oct-12 16:59N 70°04' E 019°19'0 0.0
2017-Oct-12 16:24N 70°04' E 019°18'0 0.0
2017-Oct-12 16:00N 70°04' E 019°18'0 0.0
2017-Oct-12 15:29N 70°04' E 019°18'0 0.0
2017-Oct-12 14:59N 70°04' E 019°18'0 0.1
2017-Oct-12 14:30N 70°04' E 019°18'0 0.0
2017-Oct-12 13:59N 70°04' E 019°18'0 0.0
2017-Oct-12 13:30N 70°04' E 019°18'0 0.2
2017-Oct-12 13:00N 70°04' E 019°18'0 0.2
2017-Oct-12 12:30N 70°04' E 019°18'0 0.0
2017-Oct-12 12:00N 70°04' E 019°18'0 0.0
2017-Oct-12 11:30N 70°04' E 019°18'0 0.1
2017-Oct-12 11:00N 70°04' E 019°18'0 0.0
2017-Oct-12 10:30N 70°04' E 019°18'0 0.0
2017-Oct-12 10:00N 70°04' E 019°18'0 0.0
2017-Oct-12 09:30N 70°04' E 019°18'0 0.1
2017-Oct-12 09:00N 70°04' E 019°18'0 0.0
2017-Oct-12 08:30N 70°04' E 019°18'0 0.1
2017-Oct-12 08:00N 70°04' E 019°18'0 0.0
2017-Oct-12 07:30N 70°04' E 019°18'0 0.2
2017-Oct-12 07:00N 70°04' E 019°18'  
Track history (hours):
 
Tides and Currents Weather Stations Pressure Air Temp Water Temp Dewpoint Dewpoint Depression Visibility Wind Speed Wind Dir Waves Ship Positions

Fox Challenger

Last reported at 2017-Oct-22 06:30 UTC. Time now 2017-Oct-22 06:37 UTC.
Position N 70°02' E 020°59'.

Length 30 m; draft 3.1 m.

Type: Towing. MMSI: 257785500.

Date/timePositionNaut miles runAvg speedWind from/ knotsBaromVisibWave heightAir tempDewpointWater temp
2017-Oct-22 06:30N 70°02' E 020°59'0 0.0
2017-Oct-22 05:59N 70°02' E 020°59'0 0.0
2017-Oct-22 05:30N 70°02' E 020°59'0 0.0
2017-Oct-22 05:00N 70°02' E 020°59'0 0.0
2017-Oct-22 04:30N 70°02' E 020°59'0 0.0
2017-Oct-22 04:00N 70°02' E 020°59'0 0.0
2017-Oct-22 03:30N 70°02' E 020°59'0 0.0
2017-Oct-22 02:59N 70°02' E 020°59'0 0.0
2017-Oct-22 02:29N 70°02' E 020°59'0 0.0
2017-Oct-22 02:00N 70°02' E 020°59'0 0.0
2017-Oct-22 01:30N 70°02' E 020°59'0 0.0
2017-Oct-22 01:00N 70°02' E 020°59'0 0.0
2017-Oct-22 00:30N 70°02' E 020°59'0 0.0
2017-Oct-22 00:00N 70°02' E 020°59'0 0.0
2017-Oct-21 23:30N 70°02' E 020°59'0 0.0
2017-Oct-21 23:00N 70°02' E 020°59'0 0.0
2017-Oct-21 22:31N 70°02' E 020°59'0 0.0
2017-Oct-21 22:00N 70°02' E 020°59'0 0.0
2017-Oct-21 21:30N 70°02' E 020°59'0 0.0
2017-Oct-21 21:00N 70°02' E 020°59'0 0.0
2017-Oct-21 20:29N 70°02' E 020°59'0 0.0
2017-Oct-21 20:00N 70°02' E 020°59'0 0.0
2017-Oct-21 19:30N 70°02' E 020°59'0 0.0
2017-Oct-21 19:00N 70°02' E 020°59'0 0.0
2017-Oct-21 18:30N 70°02' E 020°59'2 4.6
2017-Oct-21 18:00N 70°01' E 021°04'4 8.8
2017-Oct-21 17:30N 69°57' E 020°58'4 8.2
2017-Oct-21 17:00N 69°56' E 020°46'1 1.4
2017-Oct-21 16:30N 69°57' E 020°46'0 0.0
2017-Oct-21 16:00N 69°57' E 020°46'0 0.1
2017-Oct-21 15:30N 69°57' E 020°45'0 0.0
2017-Oct-21 15:00N 69°57' E 020°45'0 0.0
2017-Oct-21 14:30N 69°57' E 020°45'0 0.0
2017-Oct-21 13:30N 69°57' E 020°45'0 0.0
2017-Oct-21 13:00N 69°57' E 020°45'0 0.0
2017-Oct-21 12:30N 69°57' E 020°45'0 0.0
2017-Oct-21 12:00N 69°57' E 020°45'0 0.3
2017-Oct-21 11:30N 69°57' E 020°46'0 0.0
2017-Oct-21 11:00N 69°57' E 020°46'0 0.3
2017-Oct-21 10:30N 69°57' E 020°46'0 0.3
2017-Oct-21 10:00N 69°57' E 020°46'0 0.3
2017-Oct-21 09:30N 69°57' E 020°46'0 0.2
2017-Oct-21 09:00N 69°57' E 020°45'0 0.0
2017-Oct-21 08:30N 69°57' E 020°45'0 0.1
2017-Oct-21 08:00N 69°57' E 020°45'0 0.0
2017-Oct-21 07:30N 69°57' E 020°45'0 0.1
2017-Oct-21 07:00N 69°57' E 020°45'0 0.0
2017-Oct-21 06:30N 69°57' E 020°45'0 0.1
2017-Oct-21 06:00N 69°57' E 020°45'0 0.0
2017-Oct-21 05:30N 69°57' E 020°45'0 0.4
2017-Oct-21 05:00N 69°57' E 020°45'0 0.0
2017-Oct-21 04:30N 69°57' E 020°45'0 0.0
2017-Oct-21 04:00N 69°57' E 020°45'0 0.0
2017-Oct-21 03:31N 69°57' E 020°45'0 0.0
2017-Oct-21 03:00N 69°57' E 020°45'0 0.0
2017-Oct-21 02:30N 69°57' E 020°45'0 0.0
2017-Oct-21 02:00N 69°57' E 020°45'0 0.0
2017-Oct-21 01:30N 69°57' E 020°45'0 0.0
2017-Oct-21 01:00N 69°57' E 020°45'0 0.0
2017-Oct-21 00:30N 69°57' E 020°45'0 0.0
2017-Oct-21 00:00N 69°57' E 020°45'0 0.0
2017-Oct-20 23:30N 69°57' E 020°45'0 0.0
2017-Oct-20 23:00N 69°57' E 020°45'0 0.0
2017-Oct-20 22:30N 69°57' E 020°45'0 0.0
2017-Oct-20 21:59N 69°57' E 020°45'0 0.0
2017-Oct-20 21:29N 69°57' E 020°45'0 0.0
2017-Oct-20 21:00N 69°57' E 020°45'0 0.0
2017-Oct-20 20:30N 69°57' E 020°45'0 0.0
2017-Oct-20 20:00N 69°57' E 020°45'0 0.0
2017-Oct-20 19:30N 69°57' E 020°45'0 0.0
2017-Oct-20 19:00N 69°57' E 020°45'0 0.4
2017-Oct-20 18:30N 69°57' E 020°45'0 0.1
2017-Oct-20 18:00N 69°57' E 020°45'0 0.0
2017-Oct-20 17:30N 69°57' E 020°45'0 0.0
2017-Oct-20 17:00N 69°57' E 020°45'0 0.0
2017-Oct-20 16:30N 69°57' E 020°45'0 0.0
2017-Oct-20 16:00N 69°57' E 020°45'0 0.0
2017-Oct-20 15:30N 69°57' E 020°45'0 0.0
2017-Oct-20 15:00N 69°57' E 020°45'0 0.0
2017-Oct-20 14:00N 69°57' E 020°45'0 0.0
2017-Oct-20 13:29N 69°57' E 020°45'0 0.0
2017-Oct-20 12:59N 69°57' E 020°45'0 0.0
2017-Oct-20 12:30N 69°57' E 020°45'0 0.0
2017-Oct-20 12:00N 69°57' E 020°45'0 0.0
2017-Oct-20 11:30N 69°57' E 020°45'0 0.0
2017-Oct-20 11:00N 69°57' E 020°45'0 0.0
2017-Oct-20 10:30N 69°57' E 020°45'0 0.1
2017-Oct-20 10:00N 69°57' E 020°45'0 0.0
2017-Oct-20 09:30N 69°57' E 020°45'0 0.4
2017-Oct-20 09:00N 69°57' E 020°44'0 0.3
2017-Oct-20 08:30N 69°57' E 020°45'0 0.0
2017-Oct-20 08:00N 69°57' E 020°45'0 0.4
2017-Oct-20 07:29N 69°57' E 020°44'0 0.3
2017-Oct-20 06:59N 69°57' E 020°45'0 0.6
2017-Oct-20 06:30N 69°57' E 020°45'0 0.0
2017-Oct-20 06:00N 69°57' E 020°45'0 0.0
2017-Oct-20 05:30N 69°57' E 020°45'0 0.2
2017-Oct-20 05:00N 69°57' E 020°45'0 0.0
2017-Oct-20 04:29N 69°57' E 020°45'0 0.0
2017-Oct-20 04:00N 69°57' E 020°45'0 0.0
2017-Oct-20 03:30N 69°57' E 020°45'0 0.0
2017-Oct-20 03:00N 69°57' E 020°45'0 0.0
2017-Oct-20 02:30N 69°57' E 020°45'0 0.0
2017-Oct-20 02:00N 69°57' E 020°45'0 0.0
2017-Oct-20 01:30N 69°57' E 020°45'0 0.0
2017-Oct-20 01:00N 69°57' E 020°45'0 0.0
2017-Oct-20 00:30N 69°57' E 020°45'0 0.0
2017-Oct-19 23:59N 69°57' E 020°45'0 0.0
2017-Oct-19 23:30N 69°57' E 020°45'0 0.0
2017-Oct-19 23:00N 69°57' E 020°45'0 0.0
2017-Oct-19 22:30N 69°57' E 020°45'0 0.0
2017-Oct-19 22:00N 69°57' E 020°45'0 0.0
2017-Oct-19 21:30N 69°57' E 020°45'0 0.0
2017-Oct-19 21:00N 69°57' E 020°45'0 0.0
2017-Oct-19 20:30N 69°57' E 020°45'0 0.3
2017-Oct-19 20:00N 69°57' E 020°45'0 0.0
2017-Oct-19 19:30N 69°57' E 020°45'0 0.1
2017-Oct-19 19:00N 69°57' E 020°45'0 0.1
2017-Oct-19 18:29N 69°57' E 020°45'0 0.2
2017-Oct-19 18:00N 69°57' E 020°46'0 0.1
2017-Oct-19 17:30N 69°57' E 020°45'0 0.2
2017-Oct-19 17:00N 69°57' E 020°45'0 0.2
2017-Oct-19 16:29N 69°57' E 020°46'0 0.0
2017-Oct-19 15:59N 69°57' E 020°46'0 0.0
2017-Oct-19 15:29N 69°57' E 020°46'0 0.1
2017-Oct-19 15:00N 69°57' E 020°45'0 0.0
2017-Oct-19 14:30N 69°57' E 020°45'0 0.0
2017-Oct-19 14:00N 69°57' E 020°45'0 0.0
2017-Oct-19 13:30N 69°57' E 020°45'0 0.0
2017-Oct-19 13:00N 69°57' E 020°45'0 0.1
2017-Oct-19 12:30N 69°57' E 020°46'3 5.5
2017-Oct-19 12:00N 69°56' E 020°53'5 9.1
2017-Oct-19 11:30N 69°59' E 021°03'2 4.9
2017-Oct-19 11:00N 70°01' E 021°03'2 3.5
2017-Oct-19 10:30N 70°02' E 020°59'0 0.0
2017-Oct-19 10:00N 70°02' E 020°59'0 0.0
2017-Oct-19 09:29N 70°02' E 020°59'0 0.0
2017-Oct-19 09:00N 70°02' E 020°59'0 0.0
2017-Oct-19 08:29N 70°02' E 020°59'0 0.0
2017-Oct-19 08:00N 70°02' E 020°59'0 0.0
2017-Oct-19 07:30N 70°02' E 020°59'0 0.0
2017-Oct-19 07:00N 70°02' E 020°59'0 0.0
2017-Oct-19 06:30N 70°02' E 020°59'0 0.0
2017-Oct-19 06:00N 70°02' E 020°59'0 0.0
2017-Oct-19 05:30N 70°02' E 020°59'0 0.0
2017-Oct-19 04:59N 70°02' E 020°59'0 0.0
2017-Oct-19 04:30N 70°02' E 020°59'0 0.0
2017-Oct-19 04:00N 70°02' E 020°59'0 0.0
2017-Oct-19 03:29N 70°02' E 020°59'0 0.0
2017-Oct-19 02:59N 70°02' E 020°59'0 0.0
2017-Oct-19 02:30N 70°02' E 020°59'0 0.0
2017-Oct-19 02:00N 70°02' E 020°59'0 0.0
2017-Oct-19 01:30N 70°02' E 020°59'0 0.0
2017-Oct-19 01:00N 70°02' E 020°59'0 0.0
2017-Oct-19 00:30N 70°02' E 020°59'0 0.0
2017-Oct-19 00:00N 70°02' E 020°59'0 0.0
2017-Oct-18 23:30N 70°02' E 020°59'0 0.0
2017-Oct-18 23:00N 70°02' E 020°59'0 0.0
2017-Oct-18 22:30N 70°02' E 020°59'0 0.0
2017-Oct-18 21:59N 70°02' E 020°59'0 0.0
2017-Oct-18 21:30N 70°02' E 020°59'0 0.0
2017-Oct-18 20:59N 70°02' E 020°59'0 0.0
2017-Oct-18 20:30N 70°02' E 020°59'0 0.0
2017-Oct-18 20:00N 70°02' E 020°59'0 0.0
2017-Oct-18 19:29N 70°02' E 020°59'0 0.0
2017-Oct-18 18:59N 70°02' E 020°59'0 0.0
2017-Oct-18 18:30N 70°02' E 020°59'0 0.0
2017-Oct-18 18:00N 70°02' E 020°59'0 0.0
2017-Oct-18 17:30N 70°02' E 020°59'0 0.0
2017-Oct-18 17:00N 70°02' E 020°59'0 0.0
2017-Oct-18 16:30N 70°02' E 020°59'0 0.0
2017-Oct-18 16:00N 70°02' E 020°59'0 0.0
2017-Oct-18 15:29N 70°02' E 020°59'0 0.0
2017-Oct-18 15:00N 70°02' E 020°59'0 0.0
2017-Oct-18 14:00N 70°02' E 020°59'0 0.0
2017-Oct-18 13:29N 70°02' E 020°59'0 0.0
2017-Oct-18 13:00N 70°02' E 020°59'0 0.0
2017-Oct-18 12:30N 70°02' E 020°59'0 0.0
2017-Oct-18 12:00N 70°02' E 020°59'0 0.0
2017-Oct-18 11:30N 70°02' E 020°59'0 0.0
2017-Oct-18 10:59N 70°02' E 020°59'0 0.0
2017-Oct-18 10:30N 70°02' E 020°59'0 0.0
2017-Oct-18 10:00N 70°02' E 020°59'0 0.0
2017-Oct-18 09:31N 70°02' E 020°59'0 0.0
2017-Oct-18 09:00N 70°02' E 020°59'0 0.0
2017-Oct-18 08:30N 70°02' E 020°59'0 0.0
2017-Oct-18 08:00N 70°02' E 020°59'0 0.0
2017-Oct-18 07:30N 70°02' E 020°59'0 0.0
2017-Oct-18 07:00N 70°02' E 020°59'0 0.0
2017-Oct-18 06:30N 70°02' E 020°59'0 0.0
2017-Oct-18 06:00N 70°02' E 020°59'0 0.0
2017-Oct-18 05:30N 70°02' E 020°59'0 0.0
2017-Oct-18 05:00N 70°02' E 020°59'0 0.0
2017-Oct-18 04:30N 70°02' E 020°59'0 0.0
2017-Oct-18 03:59N 70°02' E 020°59'0 0.0
2017-Oct-18 03:29N 70°02' E 020°59'0 0.0
2017-Oct-18 03:00N 70°02' E 020°59'0 0.0
2017-Oct-18 02:30N 70°02' E 020°59'0 0.0
2017-Oct-18 02:00N 70°02' E 020°59'0 0.0
2017-Oct-18 01:30N 70°02' E 020°59'0 0.0
2017-Oct-18 01:00N 70°02' E 020°59'0 0.0
2017-Oct-18 00:30N 70°02' E 020°59'0 0.0
2017-Oct-18 00:01N 70°02' E 020°59'0 0.0
2017-Oct-17 23:29N 70°02' E 020°59'0 0.0
2017-Oct-17 22:59N 70°02' E 020°59'0 0.0
2017-Oct-17 22:30N 70°02' E 020°59'0 0.0
2017-Oct-17 21:59N 70°02' E 020°59'0 0.0
2017-Oct-17 21:30N 70°02' E 020°59'0 0.0
2017-Oct-17 21:00N 70°02' E 020°59'0 0.0
2017-Oct-17 20:30N 70°02' E 020°59'0 0.0
2017-Oct-17 20:00N 70°02' E 020°59'0 0.0
2017-Oct-17 19:30N 70°02' E 020°59'0 0.0
2017-Oct-17 19:00N 70°02' E 020°59'0 0.0
2017-Oct-17 18:30N 70°02' E 020°59'0 0.0
2017-Oct-17 18:00N 70°02' E 020°59'0 0.0
2017-Oct-17 17:30N 70°02' E 020°59'0 0.0
2017-Oct-17 17:00N 70°02' E 020°59'0 0.0
2017-Oct-17 16:30N 70°02' E 020°59'0 0.0
2017-Oct-17 16:00N 70°02' E 020°59'0 0.4
2017-Oct-17 15:30N 70°02' E 020°59'0 0.0
2017-Oct-17 15:00N 70°02' E 020°59'1 2.8
2017-Oct-17 14:30N 70°01' E 021°03'510.4
2017-Oct-17 14:00N 69°57' E 020°57'4 7.8
2017-Oct-17 13:31N 69°57' E 020°46'0 0.0
2017-Oct-17 13:00N 69°57' E 020°46'0 0.0
2017-Oct-17 12:30N 69°57' E 020°46'0 0.0
2017-Oct-17 12:00N 69°57' E 020°46'0 0.0
2017-Oct-17 11:30N 69°57' E 020°46'0 0.2
2017-Oct-17 11:00N 69°57' E 020°45'0 0.0
2017-Oct-17 10:30N 69°57' E 020°45'0 0.2
2017-Oct-17 10:00N 69°57' E 020°45'0 0.2
2017-Oct-17 09:30N 69°57' E 020°45'0 0.1
2017-Oct-17 09:00N 69°57' E 020°45'0 0.0
2017-Oct-17 08:29N 69°57' E 020°45'0 0.6
2017-Oct-17 08:00N 69°57' E 020°45'0 0.4
2017-Oct-17 07:30N 69°57' E 020°44'0 0.1
2017-Oct-17 07:00N 69°57' E 020°44'3 6.4
2017-Oct-17 06:30N 69°56' E 020°53'510.0
2017-Oct-17 06:00N 69°59' E 021°03'3 6.7
2017-Oct-17 05:30N 70°02' E 020°59'0 0.0
2017-Oct-17 05:00N 70°02' E 020°59'0 0.0
2017-Oct-17 04:30N 70°02' E 020°59'0 0.0
2017-Oct-17 03:59N 70°02' E 020°59'0 0.0
2017-Oct-17 03:30N 70°02' E 020°59'0 0.0
2017-Oct-17 03:00N 70°02' E 020°59'0 0.0
2017-Oct-17 02:30N 70°02' E 020°59'0 0.0
2017-Oct-17 02:00N 70°02' E 020°59'0 0.0
2017-Oct-17 01:30N 70°02' E 020°59'0 0.0
2017-Oct-17 00:59N 70°02' E 020°59'0 0.0
2017-Oct-17 00:30N 70°02' E 020°59'0 0.0
2017-Oct-17 00:00N 70°02' E 020°59'0 0.0
2017-Oct-16 23:30N 70°02' E 020°59'0 0.0
2017-Oct-16 23:00N 70°02' E 020°59'0 0.0
2017-Oct-16 22:29N 70°02' E 020°59'0 0.0
2017-Oct-16 22:00N 70°02' E 020°59'0 0.0
2017-Oct-16 21:30N 70°02' E 020°59'0 0.0
2017-Oct-16 21:00N 70°02' E 020°59'0 0.0
2017-Oct-16 20:30N 70°02' E 020°59'3 6.1
2017-Oct-16 20:00N 69°60' E 021°05'5 9.8
2017-Oct-16 19:29N 69°56' E 020°55'4 7.8
2017-Oct-16 19:00N 69°57' E 020°44'0 0.2
2017-Oct-16 18:30N 69°57' E 020°45'0 0.0
2017-Oct-16 18:00N 69°57' E 020°45'0 0.2
2017-Oct-16 17:30N 69°57' E 020°44'0 0.3
2017-Oct-16 17:00N 69°57' E 020°45'0 0.3
2017-Oct-16 16:30N 69°57' E 020°44'0 0.1
2017-Oct-16 16:00N 69°57' E 020°44'0 0.0
2017-Oct-16 15:30N 69°57' E 020°44'0 0.2
2017-Oct-16 15:00N 69°57' E 020°45'0 0.1
2017-Oct-16 14:30N 69°57' E 020°45'0 0.0
2017-Oct-16 13:30N 69°57' E 020°45'0 0.0
2017-Oct-16 13:00N 69°57' E 020°45'0 0.0
2017-Oct-16 12:30N 69°57' E 020°45'1 2.8
2017-Oct-16 12:00N 69°56' E 020°47'4 8.5
2017-Oct-16 11:29N 69°57' E 020°59'4 8.8
2017-Oct-16 11:00N 70°01' E 021°03'2 3.3
2017-Oct-16 10:30N 70°02' E 020°59'0 0.1
2017-Oct-16 10:00N 70°02' E 020°59'0 0.0
2017-Oct-16 09:30N 70°02' E 020°59'0 0.0
2017-Oct-16 09:00N 70°02' E 020°59'0 0.0
2017-Oct-16 08:30N 70°02' E 020°59'0 0.0
2017-Oct-16 08:01N 70°02' E 020°59'0 0.1
2017-Oct-16 07:30N 70°02' E 020°59'0 0.0
2017-Oct-16 07:00N 70°02' E 020°59'0 0.0
2017-Oct-16 06:30N 70°02' E 020°59'0 0.0
2017-Oct-16 06:00N 70°02' E 020°59'0 0.0
2017-Oct-16 05:30N 70°02' E 020°59'0 0.3
2017-Oct-16 05:01N 70°02' E 020°58'0 0.0
2017-Oct-16 04:30N 70°02' E 020°58'0 0.0
2017-Oct-16 04:00N 70°02' E 020°58'0 0.0
2017-Oct-16 03:30N 70°02' E 020°58'0 0.0
2017-Oct-16 03:00N 70°02' E 020°58'0 0.0
2017-Oct-16 02:30N 70°02' E 020°58'0 0.0
2017-Oct-16 02:00N 70°02' E 020°58'0 0.0
2017-Oct-16 01:30N 70°02' E 020°58'0 0.0
2017-Oct-16 01:00N 70°02' E 020°58'0 0.0
2017-Oct-16 00:30N 70°02' E 020°58'0 0.0
2017-Oct-16 00:00N 70°02' E 020°58'0 0.0
2017-Oct-15 23:30N 70°02' E 020°58'0 0.0
2017-Oct-15 23:00N 70°02' E 020°58'0 0.0
2017-Oct-15 22:30N 70°02' E 020°58'0 0.0
2017-Oct-15 22:01N 70°02' E 020°58'0 0.0
2017-Oct-15 21:30N 70°02' E 020°58'0 0.0
2017-Oct-15 21:00N 70°02' E 020°58'0 0.0
2017-Oct-15 20:30N 70°02' E 020°58'0 0.0
2017-Oct-15 20:00N 70°02' E 020°58'0 0.0
2017-Oct-15 19:30N 70°02' E 020°58'0 0.0
2017-Oct-15 19:00N 70°02' E 020°58'0 0.0
2017-Oct-15 18:30N 70°02' E 020°58'0 0.0
2017-Oct-15 18:00N 70°02' E 020°58'0 0.0
2017-Oct-15 17:29N 70°02' E 020°58'0 0.3
2017-Oct-15 17:00N 70°02' E 020°59'0 0.0
2017-Oct-15 16:30N 70°02' E 020°59'1 2.7
2017-Oct-15 15:59N 70°03' E 021°01'4 8.5
2017-Oct-15 15:30N 70°03' E 020°49'510.1
2017-Oct-15 15:00N 70°01' E 020°35'1010.2
2017-Oct-15 14:00N 70°01' E 020°05'510.4
2017-Oct-15 13:30N 70°01' E 019°50'5 9.4
2017-Oct-15 13:00N 69°58' E 019°39'1 1.6
2017-Oct-15 12:29N 69°58' E 019°37'0 0.0
2017-Oct-15 12:00N 69°58' E 019°37'0 0.0
2017-Oct-15 11:29N 69°58' E 019°37'0 0.0
2017-Oct-15 11:00N 69°58' E 019°37'0 0.0
2017-Oct-15 10:29N 69°58' E 019°37'0 0.0
2017-Oct-15 10:00N 69°58' E 019°37'0 0.0
2017-Oct-15 09:30N 69°58' E 019°37'0 0.0
2017-Oct-15 09:00N 69°58' E 019°37'0 0.0
2017-Oct-15 08:30N 69°58' E 019°37'0 0.0
2017-Oct-15 08:01N 69°58' E 019°37'0 0.0
2017-Oct-15 07:29N 69°58' E 019°37'0 0.0
2017-Oct-15 06:59N 69°58' E 019°37'0 0.0
2017-Oct-15 06:30N 69°58' E 019°37'0 0.0
2017-Oct-15 06:00N 69°58' E 019°37'0 0.0
2017-Oct-15 05:30N 69°58' E 019°37'0 0.0
2017-Oct-15 05:00N 69°58' E 019°37'0 0.0
2017-Oct-15 04:30N 69°58' E 019°37'0 0.0
2017-Oct-15 04:00N 69°58' E 019°37'0 0.0
2017-Oct-15 03:30N 69°58' E 019°37'0 0.0
2017-Oct-15 03:00N 69°58' E 019°37'0 0.0
2017-Oct-15 02:30N 69°58' E 019°37'0 0.0
2017-Oct-15 02:00N 69°58' E 019°37'0 0.0
2017-Oct-15 01:30N 69°58' E 019°37'0 0.0
2017-Oct-15 01:00N 69°58' E 019°37'0 0.0
2017-Oct-15 00:30N 69°58' E 019°37'0 0.0
2017-Oct-15 00:00N 69°58' E 019°37'0 0.0
2017-Oct-14 23:29N 69°58' E 019°37'0 0.0
2017-Oct-14 23:00N 69°58' E 019°37'0 0.0
2017-Oct-14 22:30N 69°58' E 019°37'0 0.0
2017-Oct-14 22:00N 69°58' E 019°37'0 0.0
2017-Oct-14 21:30N 69°58' E 019°37'0 0.0
2017-Oct-14 21:00N 69°58' E 019°37'0 0.0
2017-Oct-14 20:29N 69°58' E 019°37'0 0.0
2017-Oct-14 20:00N 69°58' E 019°37'0 0.0
2017-Oct-14 19:30N 69°58' E 019°37'0 0.0
2017-Oct-14 19:00N 69°58' E 019°37'0 0.0
2017-Oct-14 18:30N 69°58' E 019°37'0 0.0
2017-Oct-14 18:01N 69°58' E 019°37'0 0.0
2017-Oct-14 17:30N 69°58' E 019°37'0 0.0
2017-Oct-14 16:59N 69°58' E 019°37'0 0.0
2017-Oct-14 16:30N 69°58' E 019°37'0 0.0
2017-Oct-14 16:00N 69°58' E 019°37'0 0.0
2017-Oct-14 15:29N 69°58' E 019°37'3 5.8
2017-Oct-14 15:00N 70°00' E 019°40'510.1
2017-Oct-14 14:30N 70°04' E 019°28'3 6.8
2017-Oct-14 14:00N 70°04' E 019°19'0 0.1
2017-Oct-14 13:29N 70°04' E 019°19'0 0.1
2017-Oct-14 13:00N 70°04' E 019°19'0 0.3
2017-Oct-14 12:30N 70°04' E 019°19'0 0.3
2017-Oct-14 12:00N 70°04' E 019°19'0 0.0
2017-Oct-14 11:30N 70°04' E 019°19'0 0.0
2017-Oct-14 11:00N 70°04' E 019°19'0 0.0
2017-Oct-14 10:30N 70°04' E 019°19'0 0.0
2017-Oct-14 10:00N 70°04' E 019°19'0 0.4
2017-Oct-14 09:30N 70°04' E 019°18'0 0.0
2017-Oct-14 09:00N 70°04' E 019°18'0 0.1
2017-Oct-14 08:30N 70°04' E 019°18'0 0.0
2017-Oct-14 08:00N 70°04' E 019°18'0 0.3
2017-Oct-14 07:30N 70°04' E 019°19'0 0.3
2017-Oct-14 07:00N 70°04' E 019°18'2 4.3
2017-Oct-14 06:30N 70°03' E 019°24'5 8.8
2017-Oct-14 05:59N 70°02' E 019°37'4 8.1
2017-Oct-14 05:29N 69°58' E 019°40'1 1.8
2017-Oct-14 05:00N 69°58' E 019°37'0 0.0
2017-Oct-14 04:30N 69°58' E 019°37'0 0.0
2017-Oct-14 04:01N 69°58' E 019°37'0 0.0
2017-Oct-14 03:30N 69°58' E 019°37'0 0.0
2017-Oct-14 02:58N 69°58' E 019°37'0 0.0
2017-Oct-14 02:30N 69°58' E 019°37'0 0.0
2017-Oct-14 02:00N 69°58' E 019°37'0 0.0
2017-Oct-14 01:30N 69°58' E 019°37'0 0.0
2017-Oct-14 01:00N 69°58' E 019°37'0 0.0
2017-Oct-14 00:30N 69°58' E 019°37'0 0.0
2017-Oct-14 00:00N 69°58' E 019°37'0 0.0
2017-Oct-13 23:28N 69°58' E 019°37'0 0.0
2017-Oct-13 23:00N 69°58' E 019°37'0 0.0
2017-Oct-13 22:30N 69°58' E 019°37'0 0.0
2017-Oct-13 21:59N 69°58' E 019°37'0 0.0
2017-Oct-13 21:30N 69°58' E 019°37'0 0.0
2017-Oct-13 21:00N 69°58' E 019°37'0 0.0
2017-Oct-13 20:30N 69°58' E 019°37'0 0.0
2017-Oct-13 20:00N 69°58' E 019°37'0 0.0
2017-Oct-13 19:30N 69°58' E 019°37'2 4.7
2017-Oct-13 18:59N 69°60' E 019°41'5 9.9
2017-Oct-13 18:30N 70°03' E 019°32'5 9.0
2017-Oct-13 18:00N 70°03' E 019°19'0 1.0
2017-Oct-13 17:30N 70°04' E 019°18'0 0.0
2017-Oct-13 17:00N 70°04' E 019°18'0 0.0
2017-Oct-13 16:30N 70°04' E 019°18'0 0.0
2017-Oct-13 16:00N 70°04' E 019°18'0 0.1
2017-Oct-13 15:31N 70°04' E 019°18'0 0.0
2017-Oct-13 15:00N 70°04' E 019°18'0 0.0
2017-Oct-13 14:30N 70°04' E 019°18'0 0.4
2017-Oct-13 14:00N 70°04' E 019°19'0 0.0
2017-Oct-13 13:30N 70°04' E 019°19'0 0.4
2017-Oct-13 13:00N 70°04' E 019°18'0 0.2
2017-Oct-13 12:30N 70°04' E 019°19'0 0.0
2017-Oct-13 12:00N 70°04' E 019°19'0 0.0
2017-Oct-13 11:30N 70°04' E 019°19'0 0.0
2017-Oct-13 10:59N 70°04' E 019°19'0 0.4
2017-Oct-13 10:30N 70°04' E 019°19'0 0.4
2017-Oct-13 10:01N 70°04' E 019°19'0 0.1
2017-Oct-13 09:30N 70°04' E 019°19'0 0.0
2017-Oct-13 09:00N 70°04' E 019°19'0 0.3
2017-Oct-13 08:30N 70°04' E 019°19'0 0.0
2017-Oct-13 08:00N 70°04' E 019°19'0 0.2
2017-Oct-13 07:31N 70°04' E 019°19'0 0.1
2017-Oct-13 07:00N 70°04' E 019°19'3 5.2
2017-Oct-13 06:29N 70°03' E 019°26'4 8.7
2017-Oct-13 05:59N 70°01' E 019°37'3 6.5
2017-Oct-13 05:29N 69°58' E 019°40'1 2.4
2017-Oct-13 05:00N 69°58' E 019°37'0 0.0
2017-Oct-13 04:29N 69°58' E 019°37'0 0.0
2017-Oct-13 04:00N 69°58' E 019°37'0 0.0
2017-Oct-13 03:30N 69°58' E 019°37'0 0.0
2017-Oct-13 03:00N 69°58' E 019°37'0 0.0
2017-Oct-13 02:30N 69°58' E 019°37'0 0.0
2017-Oct-13 02:00N 69°58' E 019°37'0 0.0
2017-Oct-13 01:30N 69°58' E 019°37'0 0.0
2017-Oct-13 01:00N 69°58' E 019°37'0 0.0
2017-Oct-13 00:29N 69°58' E 019°37'0 0.0
2017-Oct-12 23:58N 69°58' E 019°37'0 0.0
2017-Oct-12 23:30N 69°58' E 019°37'0 0.0
2017-Oct-12 23:00N 69°58' E 019°37'0 0.0
2017-Oct-12 22:30N 69°58' E 019°37'0 0.0
2017-Oct-12 21:58N 69°58' E 019°37'0 0.0
2017-Oct-12 21:29N 69°58' E 019°37'0 0.0
2017-Oct-12 20:59N 69°58' E 019°37'0 0.0
2017-Oct-12 20:29N 69°58' E 019°37'0 0.0
2017-Oct-12 20:00N 69°58' E 019°37'0 0.0
2017-Oct-12 19:30N 69°58' E 019°37'0 0.0
2017-Oct-12 18:59N 69°58' E 019°37'3 5.9
2017-Oct-12 18:30N 70°00' E 019°40'5 9.6
2017-Oct-12 17:57N 70°03' E 019°27'3 6.7
2017-Oct-12 17:30N 70°04' E 019°19'0 0.3
2017-Oct-12 16:59N 70°04' E 019°19'0 0.0
2017-Oct-12 16:24N 70°04' E 019°18'0 0.0
2017-Oct-12 16:00N 70°04' E 019°18'0 0.0
2017-Oct-12 15:29N 70°04' E 019°18'0 0.0
2017-Oct-12 14:59N 70°04' E 019°18'0 0.1
2017-Oct-12 14:30N 70°04' E 019°18'0 0.0
2017-Oct-12 13:59N 70°04' E 019°18'0 0.0
2017-Oct-12 13:30N 70°04' E 019°18'0 0.2
2017-Oct-12 13:00N 70°04' E 019°18'0 0.2
2017-Oct-12 12:30N 70°04' E 019°18'0 0.0
2017-Oct-12 12:00N 70°04' E 019°18'0 0.0
2017-Oct-12 11:30N 70°04' E 019°18'0 0.1
2017-Oct-12 11:00N 70°04' E 019°18'0 0.0
2017-Oct-12 10:30N 70°04' E 019°18'0 0.0
2017-Oct-12 10:00N 70°04' E 019°18'0 0.0
2017-Oct-12 09:30N 70°04' E 019°18'0 0.1
2017-Oct-12 09:00N 70°04' E 019°18'0 0.0
2017-Oct-12 08:30N 70°04' E 019°18'0 0.1
2017-Oct-12 08:00N 70°04' E 019°18'0 0.0
2017-Oct-12 07:30N 70°04' E 019°18'0 0.2
2017-Oct-12 07:00N 70°04' E 019°18'  

Dump ship's entire track history